createdAt,value
2022-08-02T00:03:13.906Z,100542.98
2022-08-02T00:06:10.826Z,100545.74
2022-08-02T00:09:07.405Z,100550.71
2022-08-02T00:12:05.077Z,100551.96
2022-08-02T00:15:03.210Z,100543.61
2022-08-02T00:18:01.080Z,100544.73
2022-08-02T00:21:01.135Z,100547.02
2022-08-02T00:24:28.900Z,100542.71
2022-08-02T00:27:16.915Z,100551.02
2022-08-02T00:30:13.675Z,100553.70
2022-08-02T00:33:10.133Z,100546.08
2022-08-02T00:36:06.976Z,100551.48
2022-08-02T00:39:02.831Z,100552.83
2022-08-02T00:41:59.910Z,100559.59
2022-08-02T00:44:56.853Z,100561.48
2022-08-02T00:48:09.156Z,100559.11
2022-08-02T00:51:06.059Z,100567.91
2022-08-02T00:54:13.258Z,100572.46
2022-08-02T00:57:10.900Z,100572.01
2022-08-02T01:00:07.795Z,100568.20
2022-08-02T01:03:04.885Z,100566.56
2022-08-02T01:06:11.548Z,100561.38
2022-08-02T01:09:07.835Z,100567.12
2022-08-02T01:12:08.233Z,100565.94
2022-08-02T01:15:06.114Z,100569.10
2022-08-02T01:18:05.875Z,100574.48
2022-08-02T01:21:02.967Z,100575.22
2022-08-02T01:24:00.169Z,100581.33
2022-08-02T01:26:57.465Z,100584.40
2022-08-02T01:29:54.074Z,100590.42
2022-08-02T01:32:52.114Z,100593.27
2022-08-02T01:35:50.689Z,100597.99
2022-08-02T01:38:48.796Z,100603.98
2022-08-02T01:41:45.877Z,100607.94
2022-08-02T01:44:42.713Z,100607.32
2022-08-02T01:47:39.675Z,100598.88
2022-08-02T01:50:36.700Z,100606.36
2022-08-02T01:53:32.683Z,100610.02
2022-08-02T01:56:30.031Z,100611.71
2022-08-02T01:59:27.570Z,100615.04
2022-08-02T02:02:23.765Z,100620.22
2022-08-02T02:05:20.867Z,100622.19
2022-08-02T02:08:27.448Z,100618.65
2022-08-02T02:12:09.529Z,100616.73
2022-08-02T02:14:51.742Z,100611.80
2022-08-02T02:18:12.458Z,100608.82
2022-08-02T02:21:07.974Z,100607.77
2022-08-02T02:24:05.937Z,100608.45
2022-08-02T02:27:08.706Z,100611.23
2022-08-02T02:30:05.817Z,100617.05
2022-08-02T02:33:01.806Z,100616.67
2022-08-02T02:36:01.023Z,100619.06
2022-08-02T02:38:57.810Z,100611.64
2022-08-02T02:41:54.945Z,100606.69
2022-08-02T02:44:51.951Z,100603.17
2022-08-02T02:47:51.769Z,100601.91
2022-08-02T02:50:49.119Z,100601.52
2022-08-02T02:54:33.739Z,100604.73
2022-08-02T02:57:04.634Z,100601.98
2022-08-02T03:00:01.681Z,100600.30
2022-08-02T03:02:58.825Z,100603.84
2022-08-02T03:05:59.393Z,100602.65
2022-08-02T03:09:15.009Z,100605.86
2022-08-02T03:12:20.057Z,100599.42
2022-08-02T03:15:14.918Z,100610.02
2022-08-02T03:18:11.668Z,100602.67
2022-08-02T03:21:12.167Z,100597.43
2022-08-02T03:24:09.881Z,100606.04
2022-08-02T03:27:06.636Z,100604.48
2022-08-02T03:30:03.813Z,100608.60
2022-08-02T03:33:00.835Z,100607.20
2022-08-02T03:35:58.104Z,100602.88
2022-08-02T03:38:55.871Z,100599.14
2022-08-02T03:41:53.174Z,100611.11
2022-08-02T03:44:50.833Z,100611.14
2022-08-02T03:47:47.768Z,100613.47
2022-08-02T03:50:44.822Z,100616.20
2022-08-02T03:53:41.715Z,100620.55
2022-08-02T03:56:38.659Z,100628.91
2022-08-02T03:59:35.749Z,100634.65
2022-08-02T04:02:37.546Z,100638.04
2022-08-02T04:05:34.819Z,100644.17
2022-08-02T04:08:53.451Z,100650.71
2022-08-02T04:11:50.641Z,100646.39
2022-08-02T04:14:48.013Z,100656.11
2022-08-02T04:17:48.813Z,100661.86
2022-08-02T04:20:45.977Z,100663.48
2022-08-02T04:23:42.804Z,100669.83
2022-08-02T04:26:40.896Z,100673.85
2022-08-02T04:29:46.987Z,100681.13
2022-08-02T04:32:44.752Z,100681.99
2022-08-02T04:35:44.840Z,100691.01
2022-08-02T04:38:42.867Z,100696.66
2022-08-02T04:41:43.985Z,100700.63
2022-08-02T04:44:41.976Z,100703.70
2022-08-02T04:48:02.174Z,100707.91
2022-08-02T04:50:59.986Z,100704.45
2022-08-02T04:54:06.203Z,100716.20
2022-08-02T04:57:27.885Z,100717.55
2022-08-02T05:00:24.921Z,100716.04
2022-08-02T05:03:22.638Z,100719.04
2022-08-02T05:06:20.123Z,100721.10
2022-08-02T05:09:17.774Z,100722.50
2022-08-02T05:12:14.543Z,100732.95
2022-08-02T05:15:12.866Z,100733.25
2022-08-02T05:18:10.603Z,100738.23
2022-08-02T05:21:08.608Z,100747.46
2022-08-02T05:24:05.779Z,100746.59
2022-08-02T05:27:02.776Z,100748.84
2022-08-02T05:30:18.558Z,100749.41
2022-08-02T05:33:18.695Z,100744.48
2022-08-02T05:36:15.832Z,100749.04
2022-08-02T05:39:18.589Z,100747.58
2022-08-02T05:42:16.539Z,100763.79
2022-08-02T05:45:13.675Z,100766.20
2022-08-02T05:48:13.506Z,100763.91
2022-08-02T05:51:10.572Z,100763.56
2022-08-02T05:54:07.582Z,100765.30
2022-08-02T05:57:04.735Z,100772.78
2022-08-02T06:00:02.992Z,100766.30
2022-08-02T06:03:00.858Z,100773.52
2022-08-02T06:05:56.806Z,100777.42
2022-08-02T06:08:57.763Z,100774.17
2022-08-02T06:12:01.307Z,100783.26
2022-08-02T06:14:54.621Z,100779.01
2022-08-02T06:17:45.520Z,100786.30
2022-08-02T06:20:43.834Z,100785.88
2022-08-02T06:23:40.852Z,100788.08
2022-08-02T06:26:58.068Z,100794.42
2022-08-02T06:29:54.451Z,100800.61
2022-08-02T06:32:42.394Z,100804.27
2022-08-02T06:35:45.575Z,100805.45
2022-08-02T06:38:42.876Z,100810.14
2022-08-02T06:41:47.658Z,100814.16
2022-08-02T06:44:48.989Z,100820.52
2022-08-02T06:47:39.502Z,100810.75
2022-08-02T06:50:38.596Z,100813.29
2022-08-02T06:53:35.761Z,100814.86
2022-08-02T06:56:35.063Z,100815.67
2022-08-02T06:59:42.624Z,100812.98
2022-08-02T07:02:26.100Z,100822.13
2022-08-02T07:05:09.645Z,100816.00
2022-08-02T07:07:52.677Z,100821.23
2022-08-02T07:10:49.614Z,100819.14
2022-08-02T07:13:40.617Z,100820.83
2022-08-02T07:16:37.734Z,100823.78
2022-08-02T07:19:38.097Z,100821.62
2022-08-02T07:22:35.535Z,100824.95
2022-08-02T07:26:02.680Z,100827.76
2022-08-02T07:28:59.006Z,100831.04
2022-08-02T07:31:56.965Z,100831.19
2022-08-02T07:34:55.346Z,100833.39
2022-08-02T07:37:55.339Z,100839.11
2022-08-02T07:40:58.696Z,100840.55
2022-08-02T07:43:55.456Z,100838.28
2022-08-02T07:46:46.567Z,100838.11
2022-08-02T07:49:45.607Z,100842.38
2022-08-02T07:52:42.421Z,100833.90
2022-08-02T07:55:39.303Z,100841.46
2022-08-02T07:58:49.997Z,100847.60
2022-08-02T08:01:57.572Z,100844.56
2022-08-02T08:04:54.644Z,100840.88
2022-08-02T08:07:38.459Z,100847.69
2022-08-02T08:10:26.591Z,100847.06
2022-08-02T08:13:23.524Z,100843.14
2022-08-02T08:16:20.609Z,100844.78
2022-08-02T08:19:16.562Z,100844.98
2022-08-02T08:22:14.814Z,100848.51
2022-08-02T08:25:05.754Z,100847.35
2022-08-02T08:28:04.617Z,100846.38
2022-08-02T08:31:02.594Z,100846.13
2022-08-02T08:33:59.593Z,100846.86
2022-08-02T08:36:59.560Z,100852.64
2022-08-02T08:39:58.904Z,100849.73
2022-08-02T08:42:56.447Z,100849.46
2022-08-02T08:45:55.971Z,100845.65
2022-08-02T08:48:53.344Z,100844.24
2022-08-02T08:52:01.501Z,100832.55
2022-08-02T08:55:01.498Z,100831.79
2022-08-02T08:57:54.602Z,100830.86
2022-08-02T09:00:59.600Z,100836.76
2022-08-02T09:04:01.453Z,100839.08
2022-08-02T09:06:58.619Z,100842.70
2022-08-02T09:10:01.343Z,100841.16
2022-08-02T09:13:31.190Z,100838.73
2022-08-02T09:16:39.645Z,100844.38
2022-08-02T09:19:53.464Z,100839.23
2022-08-02T09:22:55.813Z,100841.95
2022-08-02T09:29:07.363Z,100835.92
2022-08-02T09:32:05.093Z,100826.98
2022-08-02T09:35:04.559Z,100828.99
2022-08-02T09:38:07.820Z,100825.51
2022-08-02T09:44:59.364Z,100824.36
2022-08-02T09:47:58.755Z,100818.34
2022-08-02T09:50:59.705Z,100826.28
2022-08-02T09:54:09.413Z,100817.19
2022-08-02T09:57:01.705Z,100828.16
2022-08-02T10:00:50.829Z,100823.25
2022-08-02T10:03:48.474Z,100824.16
2022-08-02T10:06:49.577Z,100817.27
2022-08-02T10:09:54.366Z,100817.54
2022-08-02T10:12:51.812Z,100817.13
2022-08-02T10:15:50.420Z,100818.84
2022-08-02T10:18:41.790Z,100820.67
2022-08-02T10:21:46.818Z,100820.73
2022-08-02T10:24:48.291Z,100818.46
2022-08-02T10:28:04.851Z,100809.25
2022-08-02T10:31:07.084Z,100809.20
2022-08-02T10:34:06.578Z,100810.30
2022-08-02T10:37:06.349Z,100809.94
2022-08-02T10:39:50.908Z,100806.52
2022-08-02T10:42:50.575Z,100804.69
2022-08-02T10:45:45.762Z,100801.70
2022-08-02T10:48:48.506Z,100803.46
2022-08-02T10:52:01.350Z,100799.09
2022-08-02T10:54:58.457Z,100803.98
2022-08-02T10:57:50.059Z,100803.21
2022-08-02T11:00:40.538Z,100803.38
2022-08-02T11:03:46.021Z,100800.66
2022-08-02T11:06:46.509Z,100806.81
2022-08-02T11:09:48.239Z,100802.36
2022-08-02T11:12:45.812Z,100798.27
2022-08-02T11:15:43.495Z,100804.10
2022-08-02T11:18:45.676Z,100805.97
2022-08-02T11:21:47.926Z,100809.73
2022-08-02T11:24:48.976Z,100798.36
2022-08-02T11:27:48.442Z,100806.65
2022-08-02T11:30:47.477Z,100810.49
2022-08-02T11:33:53.615Z,100808.42
2022-08-02T11:36:53.698Z,100804.17
2022-08-02T11:39:54.444Z,100805.11
2022-08-02T11:42:44.384Z,100803.85
2022-08-02T11:45:44.891Z,100795.00
2022-08-02T11:48:44.904Z,100797.57
2022-08-02T11:51:36.270Z,100797.99
2022-08-02T11:54:36.335Z,100800.23
2022-08-02T11:57:59.486Z,100804.38
2022-08-02T12:00:50.346Z,100802.25
2022-08-02T12:03:47.252Z,100802.00
2022-08-02T12:06:48.607Z,100799.95
2022-08-02T12:09:46.307Z,100802.18
2022-08-02T12:12:43.421Z,100801.98
2022-08-02T12:15:42.072Z,100794.96
2022-08-02T12:18:49.804Z,100787.39
2022-08-02T12:21:47.688Z,100787.92
2022-08-02T12:24:45.413Z,100776.15
2022-08-02T12:27:43.937Z,100779.65
2022-08-02T12:30:41.240Z,100774.23
2022-08-02T12:33:39.511Z,100778.10
2022-08-02T12:36:36.122Z,100787.98
2022-08-02T12:39:34.389Z,100788.79
2022-08-02T12:42:31.253Z,100783.66
2022-08-02T12:45:38.380Z,100787.33
2022-08-02T12:48:48.386Z,100787.04
2022-08-02T12:52:02.262Z,100785.40
2022-08-02T12:55:02.482Z,100786.38
2022-08-02T12:57:58.852Z,100786.73
2022-08-02T13:01:01.121Z,100787.17
2022-08-02T13:04:10.696Z,100789.14
2022-08-02T13:07:13.531Z,100786.63
2022-08-02T13:10:14.855Z,100789.00
2022-08-02T13:13:00.301Z,100782.16
2022-08-02T13:16:01.081Z,100775.58
2022-08-02T13:18:58.948Z,100772.30
2022-08-02T13:22:01.026Z,100774.40
2022-08-02T13:25:02.540Z,100775.09
2022-08-02T13:27:58.453Z,100775.05
2022-08-02T13:30:47.841Z,100770.83
2022-08-02T13:33:29.776Z,100773.42
2022-08-02T13:36:32.234Z,100773.08
2022-08-02T13:39:23.303Z,100764.96
2022-08-02T13:42:20.159Z,100767.90
2022-08-02T13:45:14.791Z,100772.97
2022-08-02T13:48:10.697Z,100764.45
2022-08-02T13:50:56.233Z,100757.16
2022-08-02T13:53:46.307Z,100767.39
2022-08-02T13:56:35.172Z,100769.73
2022-08-02T13:59:56.787Z,100765.12
2022-08-02T14:02:45.691Z,100764.39
2022-08-02T14:05:46.941Z,100761.09
2022-08-02T14:08:29.199Z,100764.46
2022-08-02T14:11:16.237Z,100761.91
2022-08-02T14:14:01.437Z,100760.05
2022-08-02T14:17:04.305Z,100758.96
2022-08-02T14:19:53.159Z,100759.01
2022-08-02T14:22:35.243Z,100757.14
2022-08-02T14:25:10.924Z,100749.55
2022-08-02T14:27:57.093Z,100748.05
2022-08-02T14:30:28.544Z,100760.77
2022-08-02T14:33:01.278Z,100755.84
2022-08-02T14:35:42.204Z,100762.33
2022-08-02T14:38:31.207Z,100765.95
2022-08-02T14:41:15.179Z,100766.73
2022-08-02T14:44:06.441Z,100760.14
2022-08-02T14:46:42.139Z,100761.70
2022-08-02T14:49:14.240Z,100757.16
2022-08-02T14:54:58.828Z,100750.98
2022-08-02T14:57:58.221Z,100747.55
2022-08-02T15:00:40.553Z,100745.41
2022-08-02T15:03:19.211Z,100749.67
2022-08-02T15:06:18.105Z,100744.30
2022-08-02T15:09:15.216Z,100746.00
2022-08-02T15:12:05.253Z,100742.73
2022-08-02T15:14:42.909Z,100741.71
2022-08-02T15:17:17.805Z,100740.04
2022-08-02T15:19:57.609Z,100739.88
2022-08-02T15:22:35.473Z,100745.94
2022-08-02T15:25:30.247Z,100744.11
2022-08-02T15:28:15.202Z,100744.60
2022-08-02T15:31:00.359Z,100743.95
2022-08-02T15:33:52.164Z,100743.39
2022-08-02T15:36:40.128Z,100737.25
2022-08-02T15:39:37.314Z,100735.05
2022-08-02T15:42:30.200Z,100738.64
2022-08-02T15:45:13.072Z,100735.57
2022-08-02T15:48:06.304Z,100739.60
2022-08-02T15:50:45.571Z,100735.96
2022-08-02T15:53:20.721Z,100731.60
2022-08-02T15:56:05.663Z,100735.82
2022-08-02T15:58:44.243Z,100739.23
2022-08-02T16:01:18.115Z,100744.44
2022-08-02T16:03:48.697Z,100743.45
2022-08-02T16:06:19.535Z,100738.09
2022-08-02T16:08:53.695Z,100737.44
2022-08-02T16:11:25.462Z,100736.34
2022-08-02T16:13:56.331Z,100738.34
2022-08-02T16:16:32.204Z,100743.20
2022-08-02T16:19:47.159Z,100742.20
2022-08-02T16:21:56.981Z,100744.77
2022-08-02T16:24:28.009Z,100741.23
2022-08-02T16:26:58.659Z,100740.18
2022-08-02T16:29:44.056Z,100737.24
2022-08-02T16:32:41.157Z,100738.32
2022-08-02T16:35:47.456Z,100739.95
2022-08-02T16:38:44.233Z,100740.25
2022-08-02T16:41:50.800Z,100735.02
2022-08-02T16:44:58.118Z,100729.04
2022-08-02T16:47:56.503Z,100736.43
2022-08-02T16:50:49.476Z,100736.95
2022-08-02T16:53:59.983Z,100733.14
2022-08-02T16:57:15.277Z,100738.55
2022-08-02T17:00:24.285Z,100743.95
2022-08-02T17:03:55.684Z,100740.73
2022-08-02T17:06:47.711Z,100746.91
2022-08-02T17:10:01.894Z,100750.81
2022-08-02T17:13:11.469Z,100749.48
2022-08-02T17:16:17.128Z,100744.21
2022-08-02T17:19:14.232Z,100760.48
2022-08-02T17:22:04.108Z,100762.02
2022-08-02T17:24:59.366Z,100765.65
2022-08-02T17:27:56.201Z,100764.30
2022-08-02T17:30:53.386Z,100768.05
2022-08-02T17:34:01.052Z,100768.05
2022-08-02T17:36:58.139Z,100766.00
2022-08-02T17:39:55.208Z,100765.38
2022-08-02T17:42:51.140Z,100764.77
2022-08-02T17:46:00.244Z,100756.79
2022-08-02T17:49:10.740Z,100769.20
2022-08-02T17:52:48.808Z,100766.82
2022-08-02T17:55:31.082Z,100767.14
2022-08-02T17:58:33.450Z,100766.88
2022-08-02T18:05:53.205Z,100776.56
2022-08-02T18:09:22.646Z,100778.35
2022-08-02T18:13:14.093Z,100785.31
2022-08-02T18:17:26.365Z,100794.20
2022-08-02T18:20:46.394Z,100783.15
2022-08-02T18:24:02.415Z,100793.39
2022-08-02T18:27:21.101Z,100794.69
2022-08-02T18:30:35.870Z,100796.96
2022-08-02T18:34:00.468Z,100803.89
2022-08-02T18:37:17.637Z,100804.54
2022-08-02T18:41:12.480Z,100803.39
2022-08-02T18:44:56.214Z,100820.73
2022-08-02T18:48:17.470Z,100818.95
2022-08-02T18:54:55.787Z,100822.10
2022-08-02T18:58:20.242Z,100832.59
2022-08-02T19:01:31.427Z,100828.83
2022-08-02T19:04:27.321Z,100835.89
2022-08-02T19:12:45.385Z,100841.55
2022-08-02T19:15:31.153Z,100840.33
2022-08-02T19:18:06.320Z,100840.99
2022-08-02T19:20:39.905Z,100837.42
2022-08-02T19:24:13.796Z,100841.37
2022-08-02T19:28:34.787Z,100846.52
2022-08-02T19:31:23.097Z,100842.05
2022-08-02T19:34:08.151Z,100843.45
2022-08-02T19:36:47.009Z,100839.95
2022-08-02T19:39:31.286Z,100838.94
2022-08-02T19:42:18.510Z,100838.44
2022-08-02T19:49:39.177Z,100840.30
2022-08-02T19:52:21.268Z,100840.99
2022-08-02T19:54:55.231Z,100839.91
2022-08-02T19:57:34.481Z,100841.34
2022-08-02T20:05:24.073Z,100839.22
2022-08-02T20:08:31.878Z,100837.14
2022-08-02T20:11:06.377Z,100841.77
2022-08-02T20:23:32.880Z,100845.34
2022-08-02T20:27:34.649Z,100846.17
2022-08-02T20:34:16.749Z,100845.80
2022-08-02T20:36:54.025Z,100841.77
2022-08-02T20:39:43.758Z,100845.27
2022-08-02T20:42:22.557Z,100841.57
2022-08-02T20:44:55.549Z,100841.96
2022-08-02T20:51:58.005Z,100831.77
2022-08-02T20:54:28.740Z,100833.31
2022-08-02T20:56:59.176Z,100830.73
2022-08-02T21:00:52.438Z,100832.91
2022-08-02T21:03:23.276Z,100837.45
2022-08-02T21:05:56.480Z,100833.07
2022-08-02T21:08:28.369Z,100833.21
2022-08-02T21:11:25.475Z,100830.73
2022-08-02T21:16:53.827Z,100828.61
2022-08-02T21:19:24.205Z,100828.75
2022-08-02T21:21:54.736Z,100830.42
2022-08-02T21:24:27.151Z,100838.58
2022-08-02T21:26:57.569Z,100837.26
2022-08-02T21:29:55.937Z,100837.98
2022-08-02T21:32:26.562Z,100841.06
2022-08-02T21:34:57.177Z,100839.60
2022-08-02T21:37:33.040Z,100839.38
2022-08-02T21:40:05.030Z,100848.96
2022-08-02T21:42:35.517Z,100851.15
2022-08-02T21:45:16.809Z,100855.47
2022-08-02T21:47:47.925Z,100853.81
2022-08-02T21:50:18.691Z,100859.81
2022-08-02T21:52:52.010Z,100857.83
2022-08-02T21:59:55.489Z,100871.91
2022-08-02T22:02:30.632Z,100873.31
2022-08-02T22:05:02.649Z,100871.17
2022-08-02T22:07:38.307Z,100874.06
2022-08-02T22:10:10.790Z,100868.08
2022-08-02T22:12:41.371Z,100870.94
2022-08-02T22:15:12.358Z,100871.71
2022-08-02T22:18:21.281Z,100874.93
2022-08-02T22:21:00.276Z,100877.84
2022-08-02T22:23:38.795Z,100880.05
2022-08-02T22:26:21.258Z,100878.77
2022-08-02T22:28:59.600Z,100878.31
2022-08-02T22:31:40.823Z,100882.75
2022-08-02T22:34:37.120Z,100882.73
2022-08-02T22:37:07.411Z,100883.34
2022-08-02T22:40:06.081Z,100885.52
2022-08-02T22:42:42.525Z,100887.35
2022-08-02T22:45:14.232Z,100891.66
2022-08-02T22:47:51.099Z,100891.55
2022-08-02T22:50:21.856Z,100895.52
2022-08-02T22:52:54.657Z,100900.15
2022-08-02T22:55:25.266Z,100896.64
2022-08-02T22:58:23.305Z,100898.65
2022-08-02T22:59:02.194Z,100831.30
2022-08-02T23:00:53.913Z,100896.99
2022-08-02T23:03:24.551Z,100897.11
2022-08-02T23:05:55.073Z,100898.45
2022-08-02T23:08:56.793Z,100896.46
2022-08-02T23:11:27.406Z,100897.92
2022-08-02T23:13:57.841Z,100895.45
2022-08-02T23:16:46.165Z,100889.65
2022-08-02T23:19:43.169Z,100888.42
2022-08-02T23:22:15.620Z,100884.59
2022-08-02T23:24:47.319Z,100884.20
2022-08-02T23:27:21.577Z,100881.35
2022-08-02T23:29:51.826Z,100883.05
2022-08-02T23:32:22.795Z,100881.23
2022-08-02T23:39:16.597Z,100875.91
2022-08-02T23:41:54.623Z,100875.86
2022-08-02T23:44:26.535Z,100879.41
2022-08-02T23:46:58.486Z,100880.46
2022-08-02T23:50:14.583Z,100877.16
2022-08-02T23:52:45.145Z,100881.09
2022-08-02T23:55:15.553Z,100881.05
2022-08-02T23:57:46.196Z,100876.21
